createdAt,value
2022-12-25T00:00:06.387Z,100904.59
2022-12-25T00:03:09.952Z,100911.44
2022-12-25T00:06:14.619Z,100915.88
2022-12-25T00:09:17.877Z,100923.06
2022-12-25T00:12:22.631Z,100926.91
2022-12-25T00:15:27.838Z,100933.13
2022-12-25T00:18:31.939Z,100954.84
2022-12-25T00:21:35.059Z,100942.25
2022-12-25T00:24:38.909Z,100934.94
2022-12-25T00:27:42.011Z,100938.87
2022-12-25T00:30:48.074Z,100940.16
2022-12-25T00:34:08.183Z,100956.06
2022-12-25T00:37:11.502Z,100957.97
2022-12-25T00:40:14.732Z,100963.66
2022-12-25T00:43:18.512Z,100969.06
2022-12-25T00:46:21.761Z,100976.25
2022-12-25T00:49:25.674Z,100972.03
2022-12-25T00:52:32.906Z,100974.91
2022-12-25T00:55:36.412Z,100971.69
2022-12-25T00:58:39.666Z,100987.28
2022-12-25T01:01:46.350Z,100991.69
2022-12-25T01:05:10.530Z,101000.44
2022-12-25T01:08:14.573Z,100984.06
2022-12-25T01:11:17.724Z,100985.00
2022-12-25T01:14:21.259Z,100986.63
2022-12-25T01:17:25.884Z,100987.06
2022-12-25T01:20:29.598Z,100987.06
2022-12-25T01:23:32.729Z,100987.88
2022-12-25T01:26:36.449Z,100996.72
2022-12-25T01:29:39.793Z,100991.09
2022-12-25T01:32:44.548Z,100993.13
2022-12-25T01:35:48.589Z,100992.91
2022-12-25T01:38:54.365Z,100992.44
2022-12-25T01:41:57.794Z,100987.59
2022-12-25T01:45:27.538Z,100999.41
2022-12-25T01:48:34.267Z,101006.25
2022-12-25T01:51:42.494Z,101017.78
2022-12-25T01:54:57.975Z,101002.72
2022-12-25T01:58:02.607Z,101000.63
2022-12-25T02:01:05.921Z,100993.41
2022-12-25T02:04:39.880Z,100989.16
2022-12-25T02:07:43.945Z,101002.38
2022-12-25T02:10:47.841Z,101000.25
2022-12-25T02:13:51.229Z,101008.22
2022-12-25T02:17:41.798Z,101001.78
2022-12-25T02:20:59.072Z,100999.94
2022-12-25T02:24:46.875Z,101009.34
2022-12-25T02:28:34.141Z,101016.06
2022-12-25T02:32:03.083Z,101015.63
2022-12-25T02:35:31.396Z,101009.72
2022-12-25T02:39:04.331Z,101016.06
2022-12-25T02:42:23.069Z,101017.06
2022-12-25T02:45:59.698Z,101027.69
2022-12-25T02:49:43.987Z,101032.66
2022-12-25T02:53:06.901Z,101018.12
2022-12-25T02:56:29.634Z,101024.66
2022-12-25T02:59:57.412Z,101029.06
2022-12-25T03:03:23.235Z,101022.19
2022-12-25T03:06:46.904Z,101032.22
2022-12-25T03:10:15.210Z,101037.37
2022-12-25T03:13:25.643Z,101044.75
2022-12-25T03:16:47.289Z,101050.28
2022-12-25T03:20:09.489Z,101054.50
2022-12-25T03:23:38.028Z,101055.69
2022-12-25T03:26:56.837Z,101057.19
2022-12-25T03:30:18.871Z,101051.69
2022-12-25T03:33:44.913Z,101049.69
2022-12-25T03:37:23.870Z,101055.47
2022-12-25T03:41:35.254Z,101061.50
2022-12-25T03:45:30.760Z,101073.59
2022-12-25T03:48:59.411Z,101080.00
2022-12-25T03:52:27.291Z,101087.94
2022-12-25T03:55:50.333Z,101082.06
2022-12-25T03:59:21.130Z,101092.19
2022-12-25T04:02:48.160Z,101087.41
2022-12-25T04:06:10.502Z,101095.44
2022-12-25T04:09:32.170Z,101080.47
2022-12-25T04:12:55.979Z,101085.88
2022-12-25T04:16:17.403Z,101084.69
2022-12-25T04:19:39.201Z,101080.25
2022-12-25T04:23:00.704Z,101069.34
2022-12-25T04:26:22.715Z,101080.25
2022-12-25T04:29:44.255Z,101080.53
2022-12-25T04:33:06.665Z,101086.12
2022-12-25T04:36:09.545Z,101096.16
2022-12-25T04:39:13.472Z,101097.72
2022-12-25T04:42:16.940Z,101092.22
2022-12-25T04:45:20.630Z,101079.06
2022-12-25T04:48:24.365Z,101088.72
2022-12-25T04:51:28.252Z,101076.25
2022-12-25T04:54:31.713Z,101073.31
2022-12-25T04:57:38.986Z,101085.72
2022-12-25T05:00:45.843Z,101079.25
2022-12-25T05:03:49.268Z,101080.87
2022-12-25T05:06:52.651Z,101090.69
2022-12-25T05:09:56.962Z,101089.34
2022-12-25T05:13:01.711Z,101084.78
2022-12-25T05:16:11.990Z,101087.84
2022-12-25T05:19:17.824Z,101093.19
2022-12-25T05:22:21.261Z,101093.47
2022-12-25T05:25:24.501Z,101099.94
2022-12-25T05:28:29.425Z,101096.53
2022-12-25T05:31:33.213Z,101104.91
2022-12-25T05:34:39.334Z,101101.69
2022-12-25T05:37:44.085Z,101100.38
2022-12-25T05:40:47.952Z,101115.63
2022-12-25T05:43:55.053Z,101105.69
2022-12-25T05:46:58.947Z,101116.03
2022-12-25T05:50:03.697Z,101111.72
2022-12-25T05:53:09.108Z,101116.22
2022-12-25T05:56:12.620Z,101119.53
2022-12-25T05:59:16.569Z,101123.12
2022-12-25T06:02:24.786Z,101125.28
2022-12-25T06:05:32.379Z,101123.03
2022-12-25T06:08:57.933Z,101116.06
2022-12-25T06:12:21.119Z,101116.75
2022-12-25T06:15:28.292Z,101119.53
2022-12-25T06:19:11.934Z,101116.00
2022-12-25T06:22:17.266Z,101119.66
2022-12-25T06:25:20.543Z,101110.78
2022-12-25T06:28:26.765Z,101113.84
2022-12-25T06:31:30.970Z,101110.12
2022-12-25T06:34:34.049Z,101112.69
2022-12-25T06:37:37.921Z,101122.66
2022-12-25T06:40:41.030Z,101127.94
2022-12-25T06:44:25.685Z,101138.06
2022-12-25T06:47:28.485Z,101151.78
2022-12-25T06:50:32.421Z,101148.41
2022-12-25T06:53:39.709Z,101157.06
2022-12-25T06:56:45.638Z,101151.50
2022-12-25T06:59:55.181Z,101152.19
2022-12-25T07:02:59.605Z,101170.78
2022-12-25T07:06:03.029Z,101183.81
2022-12-25T07:09:06.731Z,101180.38
2022-12-25T07:12:21.790Z,101196.50
2022-12-25T07:15:28.369Z,101196.44
2022-12-25T07:18:35.359Z,101193.16
2022-12-25T07:21:39.300Z,101206.16
2022-12-25T07:24:42.649Z,101205.31
2022-12-25T07:27:48.957Z,101218.62
2022-12-25T07:30:55.166Z,101211.44
2022-12-25T07:33:58.529Z,101209.28
2022-12-25T07:37:02.222Z,101209.59
2022-12-25T07:40:10.212Z,101219.00
2022-12-25T07:43:14.166Z,101220.94
2022-12-25T07:46:18.366Z,101216.22
2022-12-25T07:49:24.572Z,101211.91
2022-12-25T07:52:28.336Z,101217.72
2022-12-25T07:55:34.665Z,101235.53
2022-12-25T07:58:39.586Z,101248.00
2022-12-25T08:01:44.704Z,101252.72
2022-12-25T08:04:53.379Z,101261.31
2022-12-25T08:08:20.424Z,101261.41
2022-12-25T08:11:24.786Z,101261.59
2022-12-25T08:14:29.684Z,101265.69
2022-12-25T08:17:35.584Z,101272.28
2022-12-25T08:20:38.875Z,101276.28
2022-12-25T08:23:47.331Z,101271.75
2022-12-25T08:27:01.123Z,101272.47
2022-12-25T08:30:05.913Z,101282.84
2022-12-25T08:33:15.215Z,101273.34
2022-12-25T08:36:21.364Z,101280.50
2022-12-25T08:39:27.487Z,101283.09
2022-12-25T08:42:38.235Z,101283.25
2022-12-25T08:45:54.218Z,101279.97
2022-12-25T08:49:20.989Z,101282.75
2022-12-25T08:53:50.645Z,101280.50
2022-12-25T09:02:46.085Z,101278.53
2022-12-25T09:07:37.200Z,101285.13
2022-12-25T09:10:51.145Z,101284.81
2022-12-25T09:13:56.649Z,101286.25
2022-12-25T09:17:39.049Z,101283.50
2022-12-25T09:37:58.182Z,101286.94
2022-12-25T09:41:17.281Z,101285.75
2022-12-25T09:44:25.771Z,101293.84
2022-12-25T09:47:50.294Z,101288.00
2022-12-25T09:51:06.489Z,101292.84
2022-12-25T09:54:39.428Z,101286.38
2022-12-25T09:57:45.590Z,101300.34
2022-12-25T10:01:16.386Z,101291.41
2022-12-25T10:05:17.619Z,101291.41
2022-12-25T10:08:40.866Z,101286.72
2022-12-25T10:12:03.508Z,101284.28
2022-12-25T10:15:26.206Z,101280.87
2022-12-25T10:19:13.659Z,101276.50
2022-12-25T10:22:31.951Z,101268.94
2022-12-25T10:25:41.545Z,101265.06
2022-12-25T10:28:47.296Z,101260.00
2022-12-25T10:32:10.738Z,101248.56
2022-12-25T10:35:16.148Z,101252.81
2022-12-25T10:38:20.578Z,101252.88
2022-12-25T10:41:42.081Z,101256.53
2022-12-25T10:44:56.682Z,101249.03
2022-12-25T10:48:07.644Z,101244.84
2022-12-25T10:51:11.680Z,101234.44
2022-12-25T10:54:25.765Z,101240.87
2022-12-25T10:57:30.184Z,101247.88
2022-12-25T11:00:33.506Z,101246.91
2022-12-25T11:03:51.576Z,101243.50
2022-12-25T11:06:58.925Z,101240.44
2022-12-25T11:10:36.170Z,101230.66
2022-12-25T11:13:51.978Z,101219.44
2022-12-25T11:17:08.723Z,101218.53
2022-12-25T11:20:18.458Z,101215.00
2022-12-25T11:23:24.391Z,101214.81
2022-12-25T11:26:33.419Z,101217.03
2022-12-25T11:29:53.318Z,101218.09
2022-12-25T11:33:05.010Z,101213.69
2022-12-25T11:36:39.686Z,101206.56
2022-12-25T11:39:43.160Z,101205.53
2022-12-25T11:42:58.304Z,101208.97
2022-12-25T11:46:16.494Z,101200.81
2022-12-25T11:49:21.664Z,101211.75
2022-12-25T11:52:35.127Z,101206.69
2022-12-25T11:55:43.099Z,101210.84
2022-12-25T11:59:20.784Z,101208.75
2022-12-25T12:02:34.372Z,101201.62
2022-12-25T12:05:45.837Z,101210.25
2022-12-25T12:08:56.463Z,101210.37
2022-12-25T12:12:29.524Z,101204.28
2022-12-25T12:15:45.585Z,101197.59
2022-12-25T12:18:51.029Z,101193.56
2022-12-25T12:21:58.777Z,101196.09
2022-12-25T12:25:07.016Z,101200.91
2022-12-25T12:28:23.141Z,101210.13
2022-12-25T12:31:50.213Z,101202.31
2022-12-25T12:34:58.407Z,101212.69
2022-12-25T12:38:16.462Z,101217.31
2022-12-25T12:41:22.786Z,101215.91
2022-12-25T12:44:34.501Z,101212.25
2022-12-25T12:47:40.910Z,101204.38
2022-12-25T12:50:45.035Z,101209.03
2022-12-25T12:54:07.604Z,101201.94
2022-12-25T12:57:29.511Z,101209.28
2022-12-25T13:00:56.420Z,101208.12
2022-12-25T13:04:40.888Z,101216.13
2022-12-25T13:08:31.159Z,101220.84
2022-12-25T13:16:48.560Z,101220.91
2022-12-25T13:20:52.029Z,101223.22
2022-12-25T13:24:30.519Z,101216.66
2022-12-25T13:28:05.570Z,101216.78
2022-12-25T13:35:25.475Z,101210.72
2022-12-25T13:39:03.897Z,101220.69
2022-12-25T13:42:52.148Z,101221.53
2022-12-25T13:46:19.996Z,101210.66
2022-12-25T13:49:44.953Z,101213.13
2022-12-25T13:53:25.399Z,101208.62
2022-12-25T13:56:59.738Z,101227.69
2022-12-25T14:00:56.305Z,101231.28
2022-12-25T14:04:27.835Z,101230.63
2022-12-25T14:08:10.462Z,101229.97
2022-12-25T14:11:36.088Z,101234.34
2022-12-25T14:19:03.159Z,101237.31
2022-12-25T14:22:56.849Z,101234.09
2022-12-25T14:26:41.044Z,101238.25
2022-12-25T14:30:13.591Z,101236.38
2022-12-25T14:37:43.987Z,101244.41
2022-12-25T14:41:33.993Z,101256.69
2022-12-25T14:45:08.097Z,101243.87
2022-12-25T14:48:36.752Z,101250.34
2022-12-25T14:52:27.161Z,101252.41
2022-12-25T14:56:12.957Z,101253.34
2022-12-25T15:00:15.901Z,101255.50
2022-12-25T15:03:49.986Z,101250.44
2022-12-25T15:07:34.460Z,101255.13
2022-12-25T15:11:04.369Z,101252.19
2022-12-25T15:18:05.588Z,101264.59
2022-12-25T15:21:46.403Z,101265.84
2022-12-25T15:25:45.418Z,101266.63
2022-12-25T15:37:40.319Z,101251.47
2022-12-25T15:41:48.156Z,101263.16
2022-12-25T15:45:28.540Z,101242.78
2022-12-25T15:48:59.615Z,101255.38
2022-12-25T15:52:40.333Z,101270.06
2022-12-25T15:56:26.180Z,101260.34
2022-12-25T16:00:11.574Z,101258.16
2022-12-25T16:03:28.825Z,101256.97
2022-12-25T16:10:50.889Z,101256.34
2022-12-25T16:14:25.127Z,101256.31
2022-12-25T16:18:06.778Z,101263.41
2022-12-25T16:21:48.468Z,101254.88
2022-12-25T16:25:32.377Z,101254.88
2022-12-25T16:29:07.418Z,101245.12
2022-12-25T16:32:51.099Z,101246.59
2022-12-25T16:36:43.155Z,101237.78
2022-12-25T16:40:20.707Z,101234.50
2022-12-25T16:43:48.259Z,101233.75
2022-12-25T16:47:27.022Z,101235.94
2022-12-25T16:51:35.069Z,101232.41
2022-12-25T16:55:32.435Z,101237.03
2022-12-25T16:59:14.692Z,101234.63
2022-12-25T17:02:56.821Z,101236.06
2022-12-25T17:06:40.008Z,101217.13
2022-12-25T17:10:16.571Z,101222.34
2022-12-25T17:14:10.206Z,101226.81
2022-12-25T17:17:41.806Z,101226.19
2022-12-25T17:21:58.888Z,101226.09
2022-12-25T17:25:22.989Z,101232.00
2022-12-25T17:29:01.514Z,101233.09
2022-12-25T17:36:28.773Z,101226.31
2022-12-25T17:40:03.510Z,101220.22
2022-12-25T17:43:43.176Z,101206.47
2022-12-25T17:47:35.316Z,101193.13
2022-12-25T17:51:14.118Z,101188.38
2022-12-25T17:54:51.523Z,101200.22
2022-12-25T17:58:30.232Z,101201.69
2022-12-25T18:05:43.499Z,101191.25
2022-12-25T18:19:58.859Z,101203.28
2022-12-25T18:23:45.035Z,101206.56
2022-12-25T18:29:04.114Z,101204.13
2022-12-25T18:35:07.810Z,101196.41
2022-12-25T18:38:53.580Z,101187.75
2022-12-25T18:46:08.238Z,101195.69
2022-12-25T18:49:53.367Z,101184.72
2022-12-25T19:04:48.552Z,101177.06
2022-12-25T19:08:29.548Z,101175.63
2022-12-25T19:12:36.676Z,101180.28
2022-12-25T19:49:36.227Z,101194.47
2022-12-25T20:15:57.338Z,101129.44
2022-12-25T20:27:15.784Z,101123.16
2022-12-25T20:30:41.056Z,101140.16
2022-12-25T20:34:11.518Z,101130.69
2022-12-25T20:41:27.571Z,101127.81
2022-12-25T20:45:04.943Z,101128.44
2022-12-25T20:48:40.185Z,101120.34
2022-12-25T20:52:20.990Z,101124.19
2022-12-25T20:56:01.855Z,101130.44
2022-12-25T20:59:44.061Z,101132.06
2022-12-25T21:03:21.044Z,101132.69
2022-12-25T21:06:54.264Z,101137.75
2022-12-25T21:10:40.715Z,101132.28
2022-12-25T21:17:59.524Z,101122.78
2022-12-25T21:21:06.647Z,101114.66
2022-12-25T21:24:09.799Z,101106.19
2022-12-25T21:27:14.824Z,101119.16
2022-12-25T21:30:20.398Z,101118.31
2022-12-25T21:33:42.678Z,101114.25
2022-12-25T21:36:54.376Z,101116.28
2022-12-25T21:40:17.556Z,101125.56
2022-12-25T21:43:23.159Z,101103.66
2022-12-25T21:46:27.477Z,101105.69
2022-12-25T21:49:51.422Z,101109.75
2022-12-25T21:52:54.802Z,101107.13
2022-12-25T21:56:18.210Z,101105.41
2022-12-25T21:59:22.905Z,101097.13
2022-12-25T22:02:28.438Z,101099.94
2022-12-25T22:06:00.128Z,101110.91
2022-12-25T22:09:06.299Z,101115.41
2022-12-25T22:12:33.873Z,101127.12
2022-12-25T22:15:56.413Z,101126.13
2022-12-25T22:19:19.860Z,101137.03
2022-12-25T22:22:26.079Z,101134.41
2022-12-25T22:25:29.832Z,101119.59
2022-12-25T22:28:33.539Z,101112.94
2022-12-25T22:31:46.658Z,101116.00
2022-12-25T22:35:04.571Z,101106.50
2022-12-25T22:38:08.115Z,101108.94
2022-12-25T22:41:11.308Z,101112.56
2022-12-25T22:44:17.529Z,101110.75
2022-12-25T22:47:24.276Z,101109.69
2022-12-25T22:50:27.836Z,101102.41
2022-12-25T22:53:31.920Z,101121.47
2022-12-25T22:56:38.327Z,101125.28
2022-12-25T23:00:21.983Z,101123.22
2022-12-25T23:03:26.543Z,101116.28
2022-12-25T23:06:30.149Z,101109.84
2022-12-25T23:09:37.190Z,101092.22
2022-12-25T23:13:01.721Z,101090.22
2022-12-25T23:16:25.179Z,101098.25
2022-12-25T23:19:48.616Z,101094.06
2022-12-25T23:23:10.789Z,101100.75
2022-12-25T23:26:16.815Z,101103.53
2022-12-25T23:29:39.609Z,101099.47
2022-12-25T23:32:46.877Z,101100.28
2022-12-25T23:35:50.303Z,101108.03
2022-12-25T23:39:08.963Z,101098.13
2022-12-25T23:42:13.795Z,101096.84
2022-12-25T23:45:16.983Z,101081.03
2022-12-25T23:48:22.937Z,101082.88
2022-12-25T23:51:26.206Z,101084.06
2022-12-25T23:54:35.866Z,101082.88
2022-12-25T23:57:38.930Z,101077.63
